sensor_id;sensor_type;location;lat;lon;timestamp;P1;durP1;ratioP1;P2;durP2;ratioP2
51438;SDS011;38816;51.142;-0.974;2023-10-31T00:01:38;24.95;;;8.18;;
51438;SDS011;38816;51.142;-0.974;2023-10-31T00:04:03;26.60;;;8.15;;
51438;SDS011;38816;51.142;-0.974;2023-10-31T00:06:29;21.23;;;8.07;;
51438;SDS011;38816;51.142;-0.974;2023-10-31T00:08:54;16.20;;;7.10;;
51438;SDS011;38816;51.142;-0.974;2023-10-31T00:11:21;23.17;;;5.82;;
51438;SDS011;38816;51.142;-0.974;2023-10-31T00:13:46;86.40;;;6.88;;
51438;SDS011;38816;51.142;-0.974;2023-10-31T00:16:15;76.03;;;5.90;;
51438;SDS011;38816;51.142;-0.974;2023-10-31T00:18:40;65.60;;;6.30;;
51438;SDS011;38816;51.142;-0.974;2023-10-31T00:21:05;58.22;;;7.40;;
51438;SDS011;38816;51.142;-0.974;2023-10-31T00:23:31;52.88;;;6.65;;
51438;SDS011;38816;51.142;-0.974;2023-10-31T00:25:56;48.08;;;5.80;;
51438;SDS011;38816;51.142;-0.974;2023-10-31T00:28:22;62.50;;;6.75;;
51438;SDS011;38816;51.142;-0.974;2023-10-31T00:30:47;25.52;;;5.90;;
51438;SDS011;38816;51.142;-0.974;2023-10-31T00:33:12;11.45;;;5.35;;
51438;SDS011;38816;51.142;-0.974;2023-10-31T00:35:38;14.20;;;5.20;;
51438;SDS011;38816;51.142;-0.974;2023-10-31T00:38:03;18.25;;;5.43;;
51438;SDS011;38816;51.142;-0.974;2023-10-31T00:40:29;21.77;;;5.82;;
51438;SDS011;38816;51.142;-0.974;2023-10-31T00:42:55;19.08;;;5.97;;
51438;SDS011;38816;51.142;-0.974;2023-10-31T00:45:23;22.95;;;7.85;;
51438;SDS011;38816;51.142;-0.974;2023-10-31T00:47:48;24.00;;;9.95;;
51438;SDS011;38816;51.142;-0.974;2023-10-31T00:50:14;23.65;;;9.50;;
51438;SDS011;38816;51.142;-0.974;2023-10-31T00:52:39;27.42;;;8.20;;
51438;SDS011;38816;51.142;-0.974;2023-10-31T00:55:05;56.65;;;7.78;;
51438;SDS011;38816;51.142;-0.974;2023-10-31T00:57:30;37.63;;;8.40;;
51438;SDS011;38816;51.142;-0.974;2023-10-31T00:59:56;56.67;;;8.55;;
51438;SDS011;38816;51.142;-0.974;2023-10-31T01:02:21;52.28;;;9.10;;
51438;SDS011;38816;51.142;-0.974;2023-10-31T01:04:47;21.00;;;7.28;;
51438;SDS011;38816;51.142;-0.974;2023-10-31T01:07:12;29.38;;;9.13;;
51438;SDS011;38816;51.142;-0.974;2023-10-31T01:09:42;39.38;;;9.48;;
51438;SDS011;38816;51.142;-0.974;2023-10-31T01:12:07;44.60;;;9.40;;
51438;SDS011;38816;51.142;-0.974;2023-10-31T01:14:35;40.40;;;11.07;;
51438;SDS011;38816;51.142;-0.974;2023-10-31T01:17:00;36.22;;;9.07;;
51438;SDS011;38816;51.142;-0.974;2023-10-31T01:19:26;12.95;;;5.85;;
51438;SDS011;38816;51.142;-0.974;2023-10-31T01:21:51;15.73;;;6.47;;
51438;SDS011;38816;51.142;-0.974;2023-10-31T01:24:16;31.83;;;7.80;;
51438;SDS011;38816;51.142;-0.974;2023-10-31T01:26:42;21.58;;;8.30;;
51438;SDS011;38816;51.142;-0.974;2023-10-31T01:29:07;19.50;;;8.00;;
51438;SDS011;38816;51.142;-0.974;2023-10-31T01:31:33;19.27;;;8.35;;
51438;SDS011;38816;51.142;-0.974;2023-10-31T01:33:59;20.13;;;7.30;;
51438;SDS011;38816;51.142;-0.974;2023-10-31T01:36:25;22.38;;;6.97;;
51438;SDS011;38816;51.142;-0.974;2023-10-31T01:38:51;21.08;;;6.70;;
51438;SDS011;38816;51.142;-0.974;2023-10-31T01:41:17;25.25;;;7.60;;
51438;SDS011;38816;51.142;-0.974;2023-10-31T01:43:42;58.97;;;9.07;;
51438;SDS011;38816;51.142;-0.974;2023-10-31T01:46:08;36.70;;;7.30;;
51438;SDS011;38816;51.142;-0.974;2023-10-31T01:48:33;68.00;;;8.38;;
51438;SDS011;38816;51.142;-0.974;2023-10-31T01:51:03;44.35;;;8.65;;
51438;SDS011;38816;51.142;-0.974;2023-10-31T01:53:30;40.42;;;7.05;;
51438;SDS011;38816;51.142;-0.974;2023-10-31T01:55:58;16.50;;;5.38;;
51438;SDS011;38816;51.142;-0.974;2023-10-31T01:58:28;25.30;;;4.63;;
51438;SDS011;38816;51.142;-0.974;2023-10-31T02:00:56;26.48;;;4.80;;
51438;SDS011;38816;51.142;-0.974;2023-10-31T02:03:24;15.10;;;4.55;;
51438;SDS011;38816;51.142;-0.974;2023-10-31T02:05:50;26.55;;;5.15;;
51438;SDS011;38816;51.142;-0.974;2023-10-31T02:08:17;16.35;;;4.57;;
51438;SDS011;38816;51.142;-0.974;2023-10-31T02:10:42;22.77;;;5.35;;
51438;SDS011;38816;51.142;-0.974;2023-10-31T02:13:11;12.80;;;4.78;;
51438;SDS011;38816;51.142;-0.974;2023-10-31T02:15:40;34.63;;;4.65;;
51438;SDS011;38816;51.142;-0.974;2023-10-31T02:18:06;29.02;;;3.47;;
51438;SDS011;38816;51.142;-0.974;2023-10-31T02:20:32;31.80;;;2.97;;
51438;SDS011;38816;51.142;-0.974;2023-10-31T02:22:58;18.35;;;3.05;;
51438;SDS011;38816;51.142;-0.974;2023-10-31T02:25:23;7.80;;;2.95;;
51438;SDS011;38816;51.142;-0.974;2023-10-31T02:27:49;5.60;;;3.15;;
51438;SDS011;38816;51.142;-0.974;2023-10-31T02:30:14;7.10;;;3.53;;
51438;SDS011;38816;51.142;-0.974;2023-10-31T02:32:40;11.63;;;3.28;;
51438;SDS011;38816;51.142;-0.974;2023-10-31T02:35:06;6.43;;;3.45;;
51438;SDS011;38816;51.142;-0.974;2023-10-31T02:37:32;5.03;;;2.92;;
51438;SDS011;38816;51.142;-0.974;2023-10-31T02:39:58;6.38;;;3.25;;
51438;SDS011;38816;51.142;-0.974;2023-10-31T02:42:24;8.25;;;4.20;;
51438;SDS011;38816;51.142;-0.974;2023-10-31T02:44:50;9.73;;;4.22;;
51438;SDS011;38816;51.142;-0.974;2023-10-31T02:47:16;9.60;;;4.43;;
51438;SDS011;38816;51.142;-0.974;2023-10-31T02:49:41;8.30;;;4.03;;
51438;SDS011;38816;51.142;-0.974;2023-10-31T02:52:06;6.85;;;4.00;;
51438;SDS011;38816;51.142;-0.974;2023-10-31T02:54:32;8.20;;;4.25;;
51438;SDS011;38816;51.142;-0.974;2023-10-31T02:56:58;18.15;;;4.85;;
51438;SDS011;38816;51.142;-0.974;2023-10-31T02:59:23;15.88;;;5.97;;
51438;SDS011;38816;51.142;-0.974;2023-10-31T03:01:49;21.50;;;8.07;;
51438;SDS011;38816;51.142;-0.974;2023-10-31T03:04:14;22.92;;;7.63;;
51438;SDS011;38816;51.142;-0.974;2023-10-31T03:06:40;22.45;;;7.88;;
51438;SDS011;38816;51.142;-0.974;2023-10-31T03:09:06;23.13;;;7.72;;
51438;SDS011;38816;51.142;-0.974;2023-10-31T03:11:31;17.77;;;7.78;;
51438;SDS011;38816;51.142;-0.974;2023-10-31T03:13:57;20.77;;;7.82;;
51438;SDS011;38816;51.142;-0.974;2023-10-31T03:16:23;24.08;;;7.85;;
51438;SDS011;38816;51.142;-0.974;2023-10-31T03:18:49;18.42;;;7.43;;
51438;SDS011;38816;51.142;-0.974;2023-10-31T03:21:14;18.88;;;7.75;;
51438;SDS011;38816;51.142;-0.974;2023-10-31T03:23:41;18.83;;;7.93;;
51438;SDS011;38816;51.142;-0.974;2023-10-31T03:26:07;21.05;;;7.63;;
51438;SDS011;38816;51.142;-0.974;2023-10-31T03:28:32;15.43;;;6.22;;
51438;SDS011;38816;51.142;-0.974;2023-10-31T03:30:58;15.13;;;5.47;;
51438;SDS011;38816;51.142;-0.974;2023-10-31T03:33:24;17.27;;;5.25;;
51438;SDS011;38816;51.142;-0.974;2023-10-31T03:35:49;8.60;;;4.32;;
51438;SDS011;38816;51.142;-0.974;2023-10-31T03:38:15;11.35;;;4.45;;
51438;SDS011;38816;51.142;-0.974;2023-10-31T03:40:40;8.98;;;3.90;;
51438;SDS011;38816;51.142;-0.974;2023-10-31T03:43:06;8.57;;;3.95;;
51438;SDS011;38816;51.142;-0.974;2023-10-31T03:45:31;7.97;;;4.10;;
51438;SDS011;38816;51.142;-0.974;2023-10-31T03:47:57;8.13;;;4.15;;
51438;SDS011;38816;51.142;-0.974;2023-10-31T03:50:23;9.75;;;4.20;;
51438;SDS011;38816;51.142;-0.974;2023-10-31T03:52:48;10.13;;;5.03;;
51438;SDS011;38816;51.142;-0.974;2023-10-31T03:55:14;11.02;;;4.03;;
51438;SDS011;38816;51.142;-0.974;2023-10-31T03:57:39;10.10;;;4.60;;
51438;SDS011;38816;51.142;-0.974;2023-10-31T04:00:05;8.02;;;4.63;;
51438;SDS011;38816;51.142;-0.974;2023-10-31T04:02:32;12.15;;;5.40;;
51438;SDS011;38816;51.142;-0.974;2023-10-31T04:04:58;12.07;;;5.32;;
51438;SDS011;38816;51.142;-0.974;2023-10-31T04:07:23;12.07;;;6.13;;
51438;SDS011;38816;51.142;-0.974;2023-10-31T04:09:48;12.30;;;5.57;;
51438;SDS011;38816;51.142;-0.974;2023-10-31T04:12:14;16.75;;;5.78;;
51438;SDS011;38816;51.142;-0.974;2023-10-31T04:14:39;11.02;;;6.10;;
51438;SDS011;38816;51.142;-0.974;2023-10-31T04:17:05;10.82;;;5.88;;
51438;SDS011;38816;51.142;-0.974;2023-10-31T04:19:30;15.35;;;5.95;;
51438;SDS011;38816;51.142;-0.974;2023-10-31T04:21:56;10.50;;;5.72;;
51438;SDS011;38816;51.142;-0.974;2023-10-31T04:24:21;14.35;;;6.20;;
51438;SDS011;38816;51.142;-0.974;2023-10-31T04:26:47;16.17;;;5.32;;
51438;SDS011;38816;51.142;-0.974;2023-10-31T04:29:12;14.00;;;5.32;;
51438;SDS011;38816;51.142;-0.974;2023-10-31T04:31:38;10.38;;;4.75;;
51438;SDS011;38816;51.142;-0.974;2023-10-31T04:34:04;8.48;;;5.05;;
51438;SDS011;38816;51.142;-0.974;2023-10-31T04:36:29;9.52;;;5.07;;
51438;SDS011;38816;51.142;-0.974;2023-10-31T04:38:55;15.27;;;5.10;;
51438;SDS011;38816;51.142;-0.974;2023-10-31T04:41:20;9.50;;;4.30;;
51438;SDS011;38816;51.142;-0.974;2023-10-31T04:43:46;12.18;;;4.30;;
51438;SDS011;38816;51.142;-0.974;2023-10-31T04:46:11;7.05;;;4.25;;
51438;SDS011;38816;51.142;-0.974;2023-10-31T04:48:36;10.90;;;5.00;;
51438;SDS011;38816;51.142;-0.974;2023-10-31T04:51:02;20.55;;;5.63;;
51438;SDS011;38816;51.142;-0.974;2023-10-31T04:53:28;16.25;;;5.82;;
51438;SDS011;38816;51.142;-0.974;2023-10-31T04:55:53;15.32;;;5.25;;
51438;SDS011;38816;51.142;-0.974;2023-10-31T04:58:19;15.73;;;5.38;;
51438;SDS011;38816;51.142;-0.974;2023-10-31T05:00:44;17.10;;;5.15;;
51438;SDS011;38816;51.142;-0.974;2023-10-31T05:03:10;13.15;;;5.38;;
51438;SDS011;38816;51.142;-0.974;2023-10-31T05:05:35;13.18;;;6.18;;
51438;SDS011;38816;51.142;-0.974;2023-10-31T05:08:01;17.15;;;5.97;;
51438;SDS011;38816;51.142;-0.974;2023-10-31T05:10:26;14.25;;;5.63;;
51438;SDS011;38816;51.142;-0.974;2023-10-31T05:12:52;18.10;;;6.75;;
51438;SDS011;38816;51.142;-0.974;2023-10-31T05:15:17;12.38;;;5.45;;
51438;SDS011;38816;51.142;-0.974;2023-10-31T05:17:43;16.45;;;5.10;;
51438;SDS011;38816;51.142;-0.974;2023-10-31T05:20:08;9.13;;;5.00;;
51438;SDS011;38816;51.142;-0.974;2023-10-31T05:22:35;18.92;;;5.70;;
51438;SDS011;38816;51.142;-0.974;2023-10-31T05:25:01;12.07;;;5.35;;
51438;SDS011;38816;51.142;-0.974;2023-10-31T05:27:27;15.65;;;5.30;;
51438;SDS011;38816;51.142;-0.974;2023-10-31T05:29:53;10.25;;;5.63;;
51438;SDS011;38816;51.142;-0.974;2023-10-31T05:32:19;11.60;;;5.20;;
51438;SDS011;38816;51.142;-0.974;2023-10-31T05:34:44;10.02;;;5.45;;
51438;SDS011;38816;51.142;-0.974;2023-10-31T05:37:09;15.07;;;6.05;;
51438;SDS011;38816;51.142;-0.974;2023-10-31T05:39:35;11.25;;;5.40;;
51438;SDS011;38816;51.142;-0.974;2023-10-31T05:42:01;14.32;;;5.53;;
51438;SDS011;38816;51.142;-0.974;2023-10-31T05:44:27;16.58;;;5.47;;
51438;SDS011;38816;51.142;-0.974;2023-10-31T05:50:36;14.30;;;5.15;;
51438;SDS011;38816;51.142;-0.974;2023-10-31T05:53:02;13.50;;;5.05;;
51438;SDS011;38816;51.142;-0.974;2023-10-31T05:55:27;12.85;;;5.38;;
51438;SDS011;38816;51.142;-0.974;2023-10-31T05:57:52;15.50;;;5.65;;
51438;SDS011;38816;51.142;-0.974;2023-10-31T06:00:18;13.60;;;4.97;;
51438;SDS011;38816;51.142;-0.974;2023-10-31T06:02:43;12.48;;;5.03;;
51438;SDS011;38816;51.142;-0.974;2023-10-31T06:05:09;6.60;;;5.10;;
51438;SDS011;38816;51.142;-0.974;2023-10-31T06:07:34;6.70;;;4.95;;
51438;SDS011;38816;51.142;-0.974;2023-10-31T06:10:00;11.10;;;5.25;;
51438;SDS011;38816;51.142;-0.974;2023-10-31T06:12:25;10.80;;;4.93;;
51438;SDS011;38816;51.142;-0.974;2023-10-31T06:14:52;14.60;;;5.15;;
51438;SDS011;38816;51.142;-0.974;2023-10-31T06:17:17;9.07;;;5.18;;
51438;SDS011;38816;51.142;-0.974;2023-10-31T06:19:43;13.77;;;5.15;;
51438;SDS011;38816;51.142;-0.974;2023-10-31T06:22:10;10.82;;;5.10;;
51438;SDS011;38816;51.142;-0.974;2023-10-31T06:24:37;6.65;;;4.88;;
51438;SDS011;38816;51.142;-0.974;2023-10-31T06:27:02;8.38;;;4.53;;
51438;SDS011;38816;51.142;-0.974;2023-10-31T06:29:28;8.32;;;4.70;;
51438;SDS011;38816;51.142;-0.974;2023-10-31T06:31:53;25.23;;;5.00;;
51438;SDS011;38816;51.142;-0.974;2023-10-31T06:34:19;50.40;;;4.72;;
51438;SDS011;38816;51.142;-0.974;2023-10-31T06:36:44;24.00;;;4.03;;
51438;SDS011;38816;51.142;-0.974;2023-10-31T06:39:09;5.30;;;3.83;;
51438;SDS011;38816;51.142;-0.974;2023-10-31T06:41:35;10.43;;;4.57;;
51438;SDS011;38816;51.142;-0.974;2023-10-31T06:44:00;7.32;;;4.18;;
51438;SDS011;38816;51.142;-0.974;2023-10-31T06:46:26;27.50;;;4.72;;
51438;SDS011;38816;51.142;-0.974;2023-10-31T06:48:51;7.10;;;4.40;;
51438;SDS011;38816;51.142;-0.974;2023-10-31T06:51:16;15.10;;;3.60;;
51438;SDS011;38816;51.142;-0.974;2023-10-31T06:53:42;10.25;;;3.67;;
51438;SDS011;38816;51.142;-0.974;2023-10-31T06:56:07;24.75;;;4.18;;
51438;SDS011;38816;51.142;-0.974;2023-10-31T06:58:33;105.28;;;5.13;;
51438;SDS011;38816;51.142;-0.974;2023-10-31T07:00:58;39.90;;;4.60;;
51438;SDS011;38816;51.142;-0.974;2023-10-31T07:03:24;24.13;;;4.55;;
51438;SDS011;38816;51.142;-0.974;2023-10-31T07:05:50;18.55;;;4.30;;
51438;SDS011;38816;51.142;-0.974;2023-10-31T07:08:15;12.50;;;4.55;;
51438;SDS011;38816;51.142;-0.974;2023-10-31T07:10:41;43.00;;;4.93;;
51438;SDS011;38816;51.142;-0.974;2023-10-31T07:13:06;24.35;;;4.05;;
51438;SDS011;38816;51.142;-0.974;2023-10-31T07:15:32;20.08;;;4.47;;
51438;SDS011;38816;51.142;-0.974;2023-10-31T07:17:57;117.97;;;6.55;;
51438;SDS011;38816;51.142;-0.974;2023-10-31T07:20:23;14.05;;;5.13;;
51438;SDS011;38816;51.142;-0.974;2023-10-31T07:22:51;29.67;;;5.05;;
51438;SDS011;38816;51.142;-0.974;2023-10-31T07:25:16;10.75;;;4.20;;
51438;SDS011;38816;51.142;-0.974;2023-10-31T07:27:42;120.80;;;6.00;;
51438;SDS011;38816;51.142;-0.974;2023-10-31T07:30:08;43.90;;;5.07;;
51438;SDS011;38816;51.142;-0.974;2023-10-31T07:32:33;177.40;;;6.22;;
51438;SDS011;38816;51.142;-0.974;2023-10-31T07:34:59;53.70;;;4.40;;
51438;SDS011;38816;51.142;-0.974;2023-10-31T07:37:24;74.75;;;4.88;;
51438;SDS011;38816;51.142;-0.974;2023-10-31T07:39:50;62.75;;;4.97;;
51438;SDS011;38816;51.142;-0.974;2023-10-31T07:42:18;90.97;;;6.40;;
51438;SDS011;38816;51.142;-0.974;2023-10-31T07:44:43;66.57;;;4.95;;
51438;SDS011;38816;51.142;-0.974;2023-10-31T07:47:09;76.78;;;5.20;;
51438;SDS011;38816;51.142;-0.974;2023-10-31T07:49:34;105.07;;;6.45;;
51438;SDS011;38816;51.142;-0.974;2023-10-31T07:52:00;103.90;;;5.13;;
51438;SDS011;38816;51.142;-0.974;2023-10-31T07:54:25;191.95;;;6.18;;
51438;SDS011;38816;51.142;-0.974;2023-10-31T07:56:54;93.90;;;4.57;;
51438;SDS011;38816;51.142;-0.974;2023-10-31T07:59:19;102.30;;;5.85;;
51438;SDS011;38816;51.142;-0.974;2023-10-31T08:01:45;59.42;;;4.75;;
51438;SDS011;38816;51.142;-0.974;2023-10-31T08:04:10;25.25;;;4.32;;
51438;SDS011;38816;51.142;-0.974;2023-10-31T08:06:35;99.10;;;7.07;;
51438;SDS011;38816;51.142;-0.974;2023-10-31T08:09:01;22.02;;;5.28;;
51438;SDS011;38816;51.142;-0.974;2023-10-31T08:11:27;61.92;;;6.40;;
51438;SDS011;38816;51.142;-0.974;2023-10-31T08:13:52;77.70;;;6.10;;
51438;SDS011;38816;51.142;-0.974;2023-10-31T08:16:18;41.63;;;5.05;;
51438;SDS011;38816;51.142;-0.974;2023-10-31T08:18:44;12.25;;;5.00;;
51438;SDS011;38816;51.142;-0.974;2023-10-31T08:21:11;16.65;;;5.05;;
51438;SDS011;38816;51.142;-0.974;2023-10-31T08:23:36;118.80;;;7.22;;
51438;SDS011;38816;51.142;-0.974;2023-10-31T08:26:02;81.72;;;6.68;;
51438;SDS011;38816;51.142;-0.974;2023-10-31T08:28:27;18.10;;;4.82;;
51438;SDS011;38816;51.142;-0.974;2023-10-31T08:30:53;16.98;;;4.70;;
51438;SDS011;38816;51.142;-0.974;2023-10-31T08:33:19;6.55;;;4.40;;
51438;SDS011;38816;51.142;-0.974;2023-10-31T08:35:44;10.05;;;4.72;;
51438;SDS011;38816;51.142;-0.974;2023-10-31T08:38:10;38.78;;;5.90;;
51438;SDS011;38816;51.142;-0.974;2023-10-31T08:40:35;11.52;;;5.15;;
51438;SDS011;38816;51.142;-0.974;2023-10-31T08:43:01;12.70;;;5.00;;
51438;SDS011;38816;51.142;-0.974;2023-10-31T08:45:29;16.88;;;4.70;;
51438;SDS011;38816;51.142;-0.974;2023-10-31T08:47:54;16.15;;;4.68;;
51438;SDS011;38816;51.142;-0.974;2023-10-31T08:50:20;83.47;;;7.15;;
51438;SDS011;38816;51.142;-0.974;2023-10-31T08:52:45;17.00;;;5.70;;
51438;SDS011;38816;51.142;-0.974;2023-10-31T08:55:11;10.48;;;5.15;;
51438;SDS011;38816;51.142;-0.974;2023-10-31T08:57:36;17.00;;;5.10;;
51438;SDS011;38816;51.142;-0.974;2023-10-31T09:00:01;17.02;;;5.10;;
51438;SDS011;38816;51.142;-0.974;2023-10-31T09:02:30;10.32;;;5.03;;
51438;SDS011;38816;51.142;-0.974;2023-10-31T09:04:55;6.63;;;4.45;;
51438;SDS011;38816;51.142;-0.974;2023-10-31T09:07:21;18.42;;;5.35;;
51438;SDS011;38816;51.142;-0.974;2023-10-31T09:09:46;5.32;;;4.82;;
51438;SDS011;38816;51.142;-0.974;2023-10-31T09:12:11;12.38;;;5.35;;
51438;SDS011;38816;51.142;-0.974;2023-10-31T09:14:38;14.93;;;4.85;;
51438;SDS011;38816;51.142;-0.974;2023-10-31T09:17:03;15.07;;;5.43;;
51438;SDS011;38816;51.142;-0.974;2023-10-31T09:19:29;10.02;;;5.45;;
51438;SDS011;38816;51.142;-0.974;2023-10-31T09:21:55;14.23;;;5.57;;
51438;SDS011;38816;51.142;-0.974;2023-10-31T09:24:20;17.38;;;5.47;;
51438;SDS011;38816;51.142;-0.974;2023-10-31T09:26:46;7.10;;;5.45;;
51438;SDS011;38816;51.142;-0.974;2023-10-31T09:29:11;10.50;;;5.75;;
51438;SDS011;38816;51.142;-0.974;2023-10-31T09:31:37;10.52;;;6.57;;
51438;SDS011;38816;51.142;-0.974;2023-10-31T09:34:02;16.02;;;6.45;;
51438;SDS011;38816;51.142;-0.974;2023-10-31T09:36:31;16.77;;;6.68;;
51438;SDS011;38816;51.142;-0.974;2023-10-31T09:38:57;9.95;;;6.13;;
51438;SDS011;38816;51.142;-0.974;2023-10-31T09:41:22;10.70;;;5.30;;
51438;SDS011;38816;51.142;-0.974;2023-10-31T09:43:48;8.57;;;4.85;;
51438;SDS011;38816;51.142;-0.974;2023-10-31T09:46:14;11.38;;;4.80;;
51438;SDS011;38816;51.142;-0.974;2023-10-31T09:48:42;16.15;;;5.57;;
51438;SDS011;38816;51.142;-0.974;2023-10-31T09:51:08;11.48;;;4.43;;
51438;SDS011;38816;51.142;-0.974;2023-10-31T09:53:34;11.50;;;3.90;;
51438;SDS011;38816;51.142;-0.974;2023-10-31T09:56:06;10.00;;;3.78;;
51438;SDS011;38816;51.142;-0.974;2023-10-31T09:58:33;19.70;;;3.83;;
51438;SDS011;38816;51.142;-0.974;2023-10-31T10:00:59;22.73;;;4.22;;
51438;SDS011;38816;51.142;-0.974;2023-10-31T10:03:24;11.52;;;4.45;;
51438;SDS011;38816;51.142;-0.974;2023-10-31T10:05:51;17.13;;;4.90;;
51438;SDS011;38816;51.142;-0.974;2023-10-31T10:08:17;14.27;;;4.18;;
51438;SDS011;38816;51.142;-0.974;2023-10-31T10:10:44;21.10;;;4.43;;
51438;SDS011;38816;51.142;-0.974;2023-10-31T10:13:09;11.20;;;3.95;;
51438;SDS011;38816;51.142;-0.974;2023-10-31T10:15:46;8.48;;;3.03;;
51438;SDS011;38816;51.142;-0.974;2023-10-31T10:18:29;15.95;;;3.45;;
51438;SDS011;38816;51.142;-0.974;2023-10-31T10:20:57;12.48;;;3.47;;
51438;SDS011;38816;51.142;-0.974;2023-10-31T10:23:25;11.90;;;3.78;;
51438;SDS011;38816;51.142;-0.974;2023-10-31T10:25:51;12.07;;;3.65;;
51438;SDS011;38816;51.142;-0.974;2023-10-31T10:28:18;9.65;;;3.80;;
51438;SDS011;38816;51.142;-0.974;2023-10-31T10:30:47;15.77;;;3.65;;
51438;SDS011;38816;51.142;-0.974;2023-10-31T10:33:16;9.48;;;3.50;;
51438;SDS011;38816;51.142;-0.974;2023-10-31T10:35:42;9.30;;;3.60;;
51438;SDS011;38816;51.142;-0.974;2023-10-31T10:38:12;11.25;;;4.00;;
51438;SDS011;38816;51.142;-0.974;2023-10-31T10:40:40;9.55;;;4.10;;
51438;SDS011;38816;51.142;-0.974;2023-10-31T10:43:12;11.07;;;3.65;;
51438;SDS011;38816;51.142;-0.974;2023-10-31T10:45:43;12.32;;;3.45;;
51438;SDS011;38816;51.142;-0.974;2023-10-31T10:48:13;12.32;;;3.58;;
51438;SDS011;38816;51.142;-0.974;2023-10-31T10:50:41;14.23;;;3.25;;
51438;SDS011;38816;51.142;-0.974;2023-10-31T10:53:23;7.63;;;3.80;;
51438;SDS011;38816;51.142;-0.974;2023-10-31T10:55:55;11.55;;;3.63;;
51438;SDS011;38816;51.142;-0.974;2023-10-31T11:01:13;7.60;;;3.28;;
51438;SDS011;38816;51.142;-0.974;2023-10-31T11:03:39;12.07;;;3.55;;
51438;SDS011;38816;51.142;-0.974;2023-10-31T11:06:05;11.07;;;3.30;;
51438;SDS011;38816;51.142;-0.974;2023-10-31T11:08:31;6.68;;;5.20;;
51438;SDS011;38816;51.142;-0.974;2023-10-31T11:10:58;9.93;;;4.35;;
51438;SDS011;38816;51.142;-0.974;2023-10-31T11:13:24;12.40;;;4.13;;
51438;SDS011;38816;51.142;-0.974;2023-10-31T11:15:51;9.30;;;4.13;;
51438;SDS011;38816;51.142;-0.974;2023-10-31T11:18:22;5.80;;;4.45;;
51438;SDS011;38816;51.142;-0.974;2023-10-31T11:20:48;9.68;;;4.40;;
51438;SDS011;38816;51.142;-0.974;2023-10-31T11:23:14;9.88;;;5.32;;
51438;SDS011;38816;51.142;-0.974;2023-10-31T11:25:43;14.38;;;5.82;;
51438;SDS011;38816;51.142;-0.974;2023-10-31T11:28:16;11.07;;;5.78;;
51438;SDS011;38816;51.142;-0.974;2023-10-31T11:30:43;8.00;;;5.47;;
51438;SDS011;38816;51.142;-0.974;2023-10-31T11:33:14;6.13;;;3.70;;
51438;SDS011;38816;51.142;-0.974;2023-10-31T11:35:41;8.40;;;3.30;;
51438;SDS011;38816;51.142;-0.974;2023-10-31T11:38:09;12.10;;;3.78;;
51438;SDS011;38816;51.142;-0.974;2023-10-31T11:43:14;8.00;;;3.90;;
51438;SDS011;38816;51.142;-0.974;2023-10-31T11:45:43;7.28;;;4.25;;
51438;SDS011;38816;51.142;-0.974;2023-10-31T11:48:12;11.10;;;3.50;;
51438;SDS011;38816;51.142;-0.974;2023-10-31T11:50:38;9.30;;;5.32;;
51438;SDS011;38816;51.142;-0.974;2023-10-31T11:53:08;10.93;;;5.03;;
51438;SDS011;38816;51.142;-0.974;2023-10-31T11:55:44;11.05;;;5.95;;
51438;SDS011;38816;51.142;-0.974;2023-10-31T11:58:19;6.68;;;5.15;;
51438;SDS011;38816;51.142;-0.974;2023-10-31T12:00:49;10.70;;;5.00;;
51438;SDS011;38816;51.142;-0.974;2023-10-31T12:03:16;17.00;;;9.13;;
51438;SDS011;38816;51.142;-0.974;2023-10-31T12:08:58;11.57;;;5.00;;
51438;SDS011;38816;51.142;-0.974;2023-10-31T12:11:20;10.70;;;9.55;;
51438;SDS011;38816;51.142;-0.974;2023-10-31T12:13:58;12.00;;;9.32;;
51438;SDS011;38816;51.142;-0.974;2023-10-31T12:16:32;9.65;;;6.95;;
51438;SDS011;38816;51.142;-0.974;2023-10-31T12:18:59;8.55;;;6.53;;
51438;SDS011;38816;51.142;-0.974;2023-10-31T12:21:36;11.38;;;9.32;;
51438;SDS011;38816;51.142;-0.974;2023-10-31T12:24:03;8.02;;;5.55;;
51438;SDS011;38816;51.142;-0.974;2023-10-31T12:26:31;11.15;;;4.90;;
51438;SDS011;38816;51.142;-0.974;2023-10-31T12:31:38;10.15;;;4.50;;
51438;SDS011;38816;51.142;-0.974;2023-10-31T12:34:05;11.90;;;4.57;;
51438;SDS011;38816;51.142;-0.974;2023-10-31T12:36:31;7.72;;;4.13;;
51438;SDS011;38816;51.142;-0.974;2023-10-31T12:38:56;11.82;;;4.57;;
51438;SDS011;38816;51.142;-0.974;2023-10-31T12:41:22;9.75;;;5.50;;
51438;SDS011;38816;51.142;-0.974;2023-10-31T12:43:51;10.32;;;7.32;;
51438;SDS011;38816;51.142;-0.974;2023-10-31T12:46:29;15.20;;;7.43;;
51438;SDS011;38816;51.142;-0.974;2023-10-31T12:48:56;14.60;;;7.30;;
51438;SDS011;38816;51.142;-0.974;2023-10-31T12:51:22;12.60;;;8.68;;
51438;SDS011;38816;51.142;-0.974;2023-10-31T12:53:51;16.65;;;8.95;;
51438;SDS011;38816;51.142;-0.974;2023-10-31T12:59:04;12.30;;;7.55;;
51438;SDS011;38816;51.142;-0.974;2023-10-31T13:01:32;10.57;;;6.38;;
51438;SDS011;38816;51.142;-0.974;2023-10-31T13:03:59;9.80;;;7.45;;
51438;SDS011;38816;51.142;-0.974;2023-10-31T13:06:25;10.05;;;5.32;;
51438;SDS011;38816;51.142;-0.974;2023-10-31T13:08:50;12.00;;;5.55;;
51438;SDS011;38816;51.142;-0.974;2023-10-31T13:11:16;10.90;;;6.15;;
51438;SDS011;38816;51.142;-0.974;2023-10-31T13:13:42;7.40;;;5.40;;
51438;SDS011;38816;51.142;-0.974;2023-10-31T13:16:07;8.63;;;7.22;;
51438;SDS011;38816;51.142;-0.974;2023-10-31T13:18:33;19.20;;;6.70;;
51438;SDS011;38816;51.142;-0.974;2023-10-31T13:21:00;8.50;;;6.05;;
51438;SDS011;38816;51.142;-0.974;2023-10-31T13:23:25;9.43;;;5.55;;
51438;SDS011;38816;51.142;-0.974;2023-10-31T13:25:51;14.50;;;6.60;;
51438;SDS011;38816;51.142;-0.974;2023-10-31T13:28:16;14.25;;;6.05;;
51438;SDS011;38816;51.142;-0.974;2023-10-31T13:30:41;12.57;;;6.75;;
51438;SDS011;38816;51.142;-0.974;2023-10-31T13:33:07;10.93;;;6.25;;
51438;SDS011;38816;51.142;-0.974;2023-10-31T13:35:33;10.68;;;6.15;;
51438;SDS011;38816;51.142;-0.974;2023-10-31T13:37:59;7.68;;;5.07;;
51438;SDS011;38816;51.142;-0.974;2023-10-31T13:40:25;15.50;;;5.22;;
51438;SDS011;38816;51.142;-0.974;2023-10-31T13:42:51;10.82;;;5.30;;
51438;SDS011;38816;51.142;-0.974;2023-10-31T13:45:16;14.63;;;5.00;;
51438;SDS011;38816;51.142;-0.974;2023-10-31T13:47:42;10.65;;;4.70;;
51438;SDS011;38816;51.142;-0.974;2023-10-31T13:50:09;15.57;;;5.47;;
51438;SDS011;38816;51.142;-0.974;2023-10-31T13:52:35;15.32;;;5.03;;
51438;SDS011;38816;51.142;-0.974;2023-10-31T13:55:00;10.07;;;5.00;;
51438;SDS011;38816;51.142;-0.974;2023-10-31T13:57:26;15.30;;;5.60;;
51438;SDS011;38816;51.142;-0.974;2023-10-31T13:59:52;20.30;;;5.40;;
51438;SDS011;38816;51.142;-0.974;2023-10-31T14:02:18;16.25;;;5.85;;
51438;SDS011;38816;51.142;-0.974;2023-10-31T14:04:44;20.90;;;5.13;;
51438;SDS011;38816;51.142;-0.974;2023-10-31T14:07:10;12.40;;;4.90;;
51438;SDS011;38816;51.142;-0.974;2023-10-31T14:09:42;17.27;;;7.37;;
51438;SDS011;38816;51.142;-0.974;2023-10-31T14:12:07;14.93;;;6.28;;
51438;SDS011;38816;51.142;-0.974;2023-10-31T14:14:33;15.02;;;7.20;;
51438;SDS011;38816;51.142;-0.974;2023-10-31T14:16:58;18.58;;;6.50;;
51438;SDS011;38816;51.142;-0.974;2023-10-31T14:19:24;17.27;;;7.82;;
51438;SDS011;38816;51.142;-0.974;2023-10-31T14:21:49;20.63;;;7.18;;
51438;SDS011;38816;51.142;-0.974;2023-10-31T14:24:15;19.70;;;8.25;;
51438;SDS011;38816;51.142;-0.974;2023-10-31T14:26:40;18.67;;;7.32;;
51438;SDS011;38816;51.142;-0.974;2023-10-31T14:29:07;17.83;;;7.47;;
51438;SDS011;38816;51.142;-0.974;2023-10-31T14:31:37;18.58;;;7.30;;
51438;SDS011;38816;51.142;-0.974;2023-10-31T14:34:06;14.18;;;7.32;;
51438;SDS011;38816;51.142;-0.974;2023-10-31T14:36:32;19.75;;;6.13;;